createdAt,value
2022-09-06T00:00:16.272Z,2.83
2022-09-06T00:02:44.057Z,2.83
2022-09-06T00:05:12.787Z,2.95
2022-09-06T00:07:40.077Z,2.50
2022-09-06T00:10:08.138Z,2.60
2022-09-06T00:12:34.920Z,2.97
2022-09-06T00:15:02.281Z,2.83
2022-09-06T00:19:56.076Z,2.95
2022-09-06T00:22:23.003Z,2.65
2022-09-06T00:24:50.044Z,2.95
2022-09-06T00:27:16.998Z,3.08
2022-09-06T00:29:44.080Z,2.67
2022-09-06T00:32:11.180Z,3.03
2022-09-06T00:34:38.164Z,3.10
2022-09-06T00:37:05.214Z,2.85
2022-09-06T00:39:32.507Z,2.80
2022-09-06T00:41:59.552Z,3.20
2022-09-06T00:44:26.713Z,2.97
2022-09-06T00:46:55.318Z,2.70
2022-09-06T00:49:26.477Z,2.80
2022-09-06T00:52:03.590Z,2.38
2022-09-06T00:56:58.845Z,2.50
2022-09-06T00:59:29.125Z,3.13
2022-09-06T01:01:56.496Z,2.50
2022-09-06T01:07:10.114Z,2.60
2022-09-06T01:09:37.204Z,2.60
2022-09-06T01:12:07.259Z,3.05
2022-09-06T01:15:03.792Z,3.05
2022-09-06T01:17:59.454Z,2.97
2022-09-06T01:20:56.292Z,2.85
2022-09-06T01:26:16.855Z,2.92
2022-09-06T01:28:46.155Z,2.67
2022-09-06T01:31:35.529Z,3.03
2022-09-06T01:34:08.671Z,2.80
2022-09-06T01:37:06.147Z,3.20
2022-09-06T01:39:33.742Z,2.58
2022-09-06T01:42:18.151Z,2.83
2022-09-06T01:44:55.135Z,3.05
2022-09-06T01:47:56.477Z,3.20
2022-09-06T01:50:32.827Z,2.88
2022-09-06T01:53:10.934Z,3.22
2022-09-06T01:55:48.048Z,3.05
2022-09-06T02:00:57.169Z,2.97
2022-09-06T02:03:37.841Z,2.75
2022-09-06T02:06:10.018Z,3.20
2022-09-06T02:08:42.135Z,3.22
2022-09-06T02:11:09.909Z,3.03
2022-09-06T02:13:40.503Z,3.08
2022-09-06T02:16:09.335Z,2.92
2022-09-06T02:18:42.353Z,3.08
2022-09-06T02:21:13.755Z,3.17
2022-09-06T02:23:43.199Z,3.10
2022-09-06T02:26:26.444Z,3.13
2022-09-06T02:28:54.096Z,2.72
2022-09-06T02:31:30.337Z,2.60
2022-09-06T02:33:57.819Z,3.00
2022-09-06T02:36:25.286Z,2.70
2022-09-06T02:38:54.198Z,2.78
2022-09-06T02:41:24.215Z,2.80
2022-09-06T02:43:51.482Z,2.90
2022-09-06T02:46:18.471Z,2.70
2022-09-06T02:48:45.381Z,2.30
2022-09-06T02:51:12.520Z,3.05
2022-09-06T02:53:39.684Z,2.60
2022-09-06T02:56:07.056Z,2.50
2022-09-06T02:58:34.592Z,2.63
2022-09-06T03:01:01.707Z,2.30
2022-09-06T03:05:56.291Z,2.40
2022-09-06T03:08:26.439Z,2.33
2022-09-06T03:10:56.011Z,2.25
2022-09-06T03:13:24.605Z,2.40
2022-09-06T03:15:52.990Z,2.90
2022-09-06T03:18:20.550Z,2.30
2022-09-06T03:20:52.741Z,2.25
2022-09-06T03:23:20.538Z,2.50
2022-09-06T03:25:47.778Z,2.50
2022-09-06T03:33:11.678Z,2.30
2022-09-06T03:35:39.006Z,2.08
2022-09-06T03:40:32.784Z,2.40
2022-09-06T03:42:59.728Z,2.80
2022-09-06T03:45:26.542Z,2.17
2022-09-06T03:47:53.450Z,2.85
2022-09-06T03:50:20.262Z,2.05
2022-09-06T03:52:47.182Z,1.98
2022-09-06T03:55:14.098Z,2.70
2022-09-06T03:57:41.028Z,2.35
2022-09-06T04:00:08.580Z,2.25
2022-09-06T04:02:38.413Z,2.50
2022-09-06T04:05:07.890Z,2.28
2022-09-06T04:07:34.921Z,2.30
2022-09-06T04:10:01.775Z,2.15
2022-09-06T04:12:28.938Z,2.13
2022-09-06T04:14:55.794Z,2.40
2022-09-06T04:17:22.669Z,2.53
2022-09-06T04:19:49.540Z,2.40
2022-09-06T04:22:16.295Z,2.20
2022-09-06T04:24:43.147Z,2.30
2022-09-06T04:27:09.911Z,2.25
2022-09-06T04:29:36.828Z,2.50
2022-09-06T04:32:04.086Z,2.58
2022-09-06T04:36:58.131Z,2.15
2022-09-06T04:39:25.042Z,2.22
2022-09-06T04:41:51.955Z,2.50
2022-09-06T04:44:18.981Z,2.90
2022-09-06T04:46:46.036Z,2.13
2022-09-06T04:49:12.985Z,2.20
2022-09-06T04:51:40.140Z,2.72
2022-09-06T04:54:07.236Z,2.53
2022-09-06T04:56:34.516Z,2.40
2022-09-06T05:01:28.551Z,2.45
2022-09-06T05:03:57.072Z,2.60
2022-09-06T05:06:25.594Z,2.65
2022-09-06T05:08:52.655Z,2.83
2022-09-06T05:11:20.511Z,2.95
2022-09-06T05:13:50.488Z,2.67
2022-09-06T05:16:17.919Z,2.83
2022-09-06T05:18:45.641Z,2.63
2022-09-06T05:21:16.189Z,2.75
2022-09-06T05:23:43.728Z,2.75
2022-09-06T05:28:38.890Z,3.60
2022-09-06T05:31:23.819Z,3.08
2022-09-06T05:33:53.758Z,2.75
2022-09-06T05:36:23.205Z,2.53
2022-09-06T05:38:54.726Z,2.63
2022-09-06T05:41:23.363Z,2.80
2022-09-06T05:43:50.550Z,2.83
2022-09-06T05:46:19.870Z,2.67
2022-09-06T05:48:54.596Z,2.35
2022-09-06T05:51:22.312Z,2.40
2022-09-06T05:53:49.631Z,2.42
2022-09-06T05:56:17.941Z,2.42
2022-09-06T05:58:45.184Z,2.85
2022-09-06T06:01:19.724Z,3.25
2022-09-06T06:04:04.308Z,2.78
2022-09-06T06:06:36.157Z,3.83
2022-09-06T06:09:03.357Z,2.92
2022-09-06T06:11:31.351Z,2.70
2022-09-06T06:13:58.966Z,3.85
2022-09-06T06:16:26.033Z,3.22
2022-09-06T06:18:53.013Z,3.42
2022-09-06T06:21:22.658Z,3.95
2022-09-06T06:23:52.028Z,4.30
2022-09-06T06:26:19.299Z,3.50
2022-09-06T06:31:14.376Z,3.55
2022-09-06T06:33:41.870Z,3.20
2022-09-06T06:36:21.713Z,3.53
2022-09-06T06:38:49.893Z,4.22
2022-09-06T06:41:19.403Z,3.90
2022-09-06T06:43:46.663Z,4.03
2022-09-06T06:46:19.070Z,3.28
2022-09-06T06:48:47.957Z,3.55
2022-09-06T06:51:20.658Z,3.50
2022-09-06T06:53:48.967Z,3.65
2022-09-06T06:56:21.668Z,3.35
2022-09-06T06:58:51.080Z,3.60
2022-09-06T07:01:20.510Z,3.28
2022-09-06T07:03:47.702Z,2.92
2022-09-06T07:06:15.006Z,3.40
2022-09-06T07:08:42.567Z,3.38
2022-09-06T07:11:15.213Z,3.20
2022-09-06T07:13:42.319Z,3.10
2022-09-06T07:16:18.233Z,2.83
2022-09-06T07:18:46.072Z,2.80
2022-09-06T07:24:09.661Z,2.38
2022-09-06T07:26:39.386Z,2.85
2022-09-06T07:29:07.583Z,2.90
2022-09-06T07:34:22.501Z,3.20
2022-09-06T07:36:53.051Z,2.70
2022-09-06T07:39:20.006Z,3.00
2022-09-06T07:41:46.823Z,3.25
2022-09-06T07:44:13.747Z,2.70
2022-09-06T07:46:40.724Z,2.58
2022-09-06T07:49:07.758Z,3.13
2022-09-06T07:51:34.576Z,3.25
2022-09-06T07:54:26.181Z,2.97
2022-09-06T07:56:48.781Z,3.08
2022-09-06T07:59:15.882Z,3.15
2022-09-06T08:01:42.847Z,2.70
2022-09-06T08:04:14.575Z,3.08
2022-09-06T08:09:39.105Z,2.35
2022-09-06T08:12:09.191Z,2.97
2022-09-06T08:14:36.312Z,2.53
2022-09-06T08:17:04.977Z,2.50
2022-09-06T08:19:32.083Z,2.65
2022-09-06T08:21:59.009Z,2.58
2022-09-06T08:24:26.457Z,2.15
2022-09-06T08:26:53.419Z,2.30
2022-09-06T08:29:20.362Z,2.33
2022-09-06T08:31:47.652Z,2.30
2022-09-06T08:34:15.114Z,2.80
2022-09-06T08:36:43.017Z,2.70
2022-09-06T08:39:11.079Z,2.50
2022-09-06T08:41:49.356Z,2.58
2022-09-06T08:47:13.985Z,2.28
2022-09-06T08:49:49.141Z,2.35
2022-09-06T08:52:25.687Z,2.47
2022-09-06T08:55:26.248Z,1.83
2022-09-06T08:58:13.318Z,2.58
2022-09-06T09:00:42.474Z,2.03
2022-09-06T09:03:18.067Z,2.25
2022-09-06T09:05:50.118Z,2.30
2022-09-06T09:08:27.726Z,2.50
2022-09-06T09:10:57.725Z,2.33
2022-09-06T09:13:33.752Z,2.40
2022-09-06T09:16:00.780Z,2.50
2022-09-06T09:18:30.630Z,2.47
2022-09-06T09:20:59.017Z,1.98
2022-09-06T09:23:26.804Z,2.40
2022-09-06T09:25:57.004Z,2.55
2022-09-06T09:28:24.970Z,2.13
2022-09-06T09:30:54.915Z,1.83
2022-09-06T09:33:36.847Z,1.70
2022-09-06T09:36:14.304Z,1.80
2022-09-06T09:38:46.687Z,1.90
2022-09-06T09:41:33.268Z,1.90
2022-09-06T09:44:07.399Z,2.30
2022-09-06T09:46:36.626Z,2.40
2022-09-06T09:49:06.174Z,1.70
2022-09-06T09:51:45.207Z,2.00
2022-09-06T09:54:14.715Z,1.80
2022-09-06T09:56:52.866Z,2.15
2022-09-06T09:59:27.666Z,1.75
2022-09-06T10:01:57.890Z,1.90
2022-09-06T10:04:44.237Z,1.90
2022-09-06T10:09:50.296Z,1.70
2022-09-06T10:12:30.674Z,2.10
2022-09-06T10:14:58.070Z,1.80
2022-09-06T10:17:31.466Z,1.63
2022-09-06T10:20:10.512Z,1.33
2022-09-06T10:23:01.600Z,1.30
2022-09-06T10:25:47.658Z,1.40
2022-09-06T10:28:34.846Z,1.80
2022-09-06T10:31:43.416Z,1.40
2022-09-06T10:34:44.372Z,1.50
2022-09-06T10:37:25.170Z,1.67
2022-09-06T10:40:06.477Z,1.40
2022-09-06T10:42:52.842Z,1.80
2022-09-06T10:45:33.848Z,1.83
2022-09-06T10:48:10.198Z,1.65
2022-09-06T10:50:47.554Z,1.52
2022-09-06T10:53:28.422Z,1.77
2022-09-06T10:56:24.625Z,1.50
2022-09-06T10:59:39.416Z,2.05
2022-09-06T11:02:27.383Z,1.77
2022-09-06T11:10:51.214Z,1.60
2022-09-06T11:13:20.439Z,1.90
2022-09-06T11:16:05.668Z,1.40
2022-09-06T11:18:46.789Z,1.73
2022-09-06T11:21:35.509Z,1.80
2022-09-06T11:24:11.040Z,1.77
2022-09-06T11:27:12.005Z,1.73
2022-09-06T11:29:45.056Z,2.00
2022-09-06T11:32:32.934Z,1.70
2022-09-06T11:35:03.810Z,1.80
2022-09-06T11:37:39.326Z,1.58
2022-09-06T11:40:29.119Z,1.70
2022-09-06T11:42:58.735Z,1.50
2022-09-06T11:45:51.869Z,1.60
2022-09-06T11:48:33.933Z,1.70
2022-09-06T11:51:06.760Z,1.40
2022-09-06T11:54:04.044Z,1.38
2022-09-06T11:56:42.182Z,1.60
2022-09-06T11:59:24.389Z,1.40
2022-09-06T12:02:25.326Z,1.55
2022-09-06T12:05:03.620Z,1.55
2022-09-06T12:07:34.492Z,1.38
2022-09-06T12:10:22.894Z,1.63
2022-09-06T12:12:52.422Z,1.77
2022-09-06T12:15:46.432Z,1.45
2022-09-06T12:18:42.942Z,1.80
2022-09-06T12:21:31.041Z,1.60
2022-09-06T12:23:58.296Z,1.30
2022-09-06T12:26:50.731Z,1.30
2022-09-06T12:29:28.191Z,1.30
2022-09-06T12:32:01.533Z,1.42
2022-09-06T12:34:34.654Z,1.02
2022-09-06T12:37:07.310Z,1.08
2022-09-06T12:39:35.165Z,1.45
2022-09-06T12:42:12.673Z,1.10
2022-09-06T12:44:49.264Z,0.98
2022-09-06T12:47:22.949Z,0.98
2022-09-06T12:50:25.903Z,1.80
2022-09-06T12:52:59.427Z,1.45
2022-09-06T12:55:32.590Z,1.27
2022-09-06T12:58:12.351Z,1.30
2022-09-06T13:00:52.191Z,1.70
2022-09-06T13:03:31.389Z,9.48
2022-09-06T13:06:00.335Z,2.97
2022-09-06T13:08:37.657Z,1.58
2022-09-06T13:11:10.973Z,1.25
2022-09-06T13:13:48.946Z,1.00
2022-09-06T13:16:36.410Z,1.50
2022-09-06T13:19:17.301Z,1.25
2022-09-06T13:21:46.246Z,1.05
2022-09-06T13:24:47.619Z,1.33
2022-09-06T13:27:27.113Z,1.85
2022-09-06T13:30:34.672Z,1.38
2022-09-06T13:33:03.462Z,1.52
2022-09-06T13:35:35.027Z,1.50
2022-09-06T13:38:34.047Z,1.20
2022-09-06T13:41:17.070Z,1.00
2022-09-06T13:43:49.517Z,1.58
2022-09-06T13:46:17.171Z,1.48
2022-09-06T13:48:44.990Z,1.30
2022-09-06T13:51:12.671Z,1.27
2022-09-06T13:53:43.331Z,1.70
2022-09-06T13:56:11.865Z,1.30
2022-09-06T13:58:38.632Z,0.98
2022-09-06T14:01:09.890Z,1.45
2022-09-06T14:03:40.570Z,1.48
2022-09-06T14:06:08.165Z,1.55
2022-09-06T14:08:56.235Z,1.48
2022-09-06T14:11:24.500Z,1.27
2022-09-06T14:13:51.348Z,1.50
2022-09-06T14:18:45.406Z,1.40
2022-09-06T14:23:39.272Z,1.60
2022-09-06T14:26:07.550Z,1.30
2022-09-06T14:28:35.507Z,1.30
2022-09-06T14:31:20.525Z,1.35
2022-09-06T14:33:48.404Z,1.25
2022-09-06T14:36:19.479Z,1.40
2022-09-06T14:38:48.708Z,1.13
2022-09-06T14:41:18.537Z,1.30
2022-09-06T14:43:51.085Z,1.30
2022-09-06T14:46:19.740Z,1.40
2022-09-06T14:48:56.254Z,1.23
2022-09-06T14:51:24.158Z,1.63
2022-09-06T14:53:58.334Z,1.55
2022-09-06T14:56:29.637Z,1.50
2022-09-06T14:58:57.848Z,1.52
2022-09-06T15:01:28.516Z,1.15
2022-09-06T15:04:02.875Z,1.50
2022-09-06T15:06:32.497Z,1.30
2022-09-06T15:08:59.794Z,1.10
2022-09-06T15:11:36.473Z,1.50
2022-09-06T15:14:08.767Z,1.40
2022-09-06T15:16:38.057Z,1.00
2022-09-06T15:19:06.787Z,1.50
2022-09-06T15:21:37.727Z,1.08
2022-09-06T15:24:11.006Z,1.20
2022-09-06T15:26:39.705Z,1.20
2022-09-06T15:29:06.602Z,1.23
2022-09-06T15:31:34.628Z,1.05
2022-09-06T15:34:02.969Z,1.58
2022-09-06T15:36:30.158Z,1.23
2022-09-06T15:39:00.991Z,1.15
2022-09-06T15:41:31.534Z,1.25
2022-09-06T15:44:07.226Z,1.30
2022-09-06T15:46:50.376Z,0.93
2022-09-06T15:49:29.121Z,1.20
2022-09-06T15:51:58.239Z,1.55
2022-09-06T15:54:45.302Z,1.25
2022-09-06T15:57:13.523Z,1.65
2022-09-06T15:59:41.143Z,1.23
2022-09-06T16:02:11.259Z,1.30
2022-09-06T16:04:38.122Z,1.25
2022-09-06T16:07:06.180Z,1.73
2022-09-06T16:09:33.420Z,6.07
2022-09-06T16:12:00.138Z,1.40
2022-09-06T16:14:28.269Z,1.27
2022-09-06T16:16:56.148Z,1.67
2022-09-06T16:19:24.267Z,1.35
2022-09-06T16:21:51.193Z,1.25
2022-09-06T16:24:18.539Z,1.33
2022-09-06T16:26:49.235Z,1.17
2022-09-06T16:29:18.114Z,1.00
2022-09-06T16:31:45.901Z,1.20
2022-09-06T16:34:13.893Z,1.10
2022-09-06T16:36:40.982Z,1.33
2022-09-06T16:39:08.751Z,1.20
2022-09-06T16:41:44.495Z,1.13
2022-09-06T16:44:16.474Z,1.10
2022-09-06T16:46:48.579Z,1.10
2022-09-06T16:49:17.332Z,1.40
2022-09-06T16:51:45.137Z,1.10
2022-09-06T16:54:13.010Z,1.52
2022-09-06T16:56:39.988Z,1.70
2022-09-06T16:59:09.052Z,1.00
2022-09-06T17:01:37.874Z,1.45
2022-09-06T17:04:08.006Z,1.60
2022-09-06T17:06:42.175Z,1.75
2022-09-06T17:09:10.479Z,1.27
2022-09-06T17:11:37.899Z,1.48
2022-09-06T17:14:05.054Z,1.73
2022-09-06T17:16:53.301Z,1.15
2022-09-06T17:19:20.333Z,1.30
2022-09-06T17:21:47.660Z,1.50
2022-09-06T17:24:22.612Z,1.50
2022-09-06T17:26:49.826Z,2.35
2022-09-06T17:29:17.109Z,1.50
2022-09-06T17:31:46.300Z,1.50
2022-09-06T17:34:13.528Z,1.20
2022-09-06T17:36:40.611Z,1.65
2022-09-06T17:39:13.968Z,2.35
2022-09-06T17:41:45.658Z,1.70
2022-09-06T17:44:18.328Z,1.60
2022-09-06T17:47:02.566Z,2.63
2022-09-06T17:49:36.869Z,1.50
2022-09-06T17:52:03.973Z,1.70
2022-09-06T17:54:31.733Z,1.77
2022-09-06T17:56:58.840Z,1.70
2022-09-06T18:01:52.807Z,1.77
2022-09-06T18:04:19.822Z,1.67
2022-09-06T18:06:47.677Z,2.70
2022-09-06T18:09:17.468Z,1.75
2022-09-06T18:11:48.097Z,1.83
2022-09-06T18:14:18.175Z,1.80
2022-09-06T18:16:47.368Z,1.70
2022-09-06T18:19:15.321Z,1.92
2022-09-06T18:21:42.412Z,1.80
2022-09-06T18:24:10.096Z,1.88
2022-09-06T18:26:37.620Z,1.50
2022-09-06T18:29:08.366Z,1.85
2022-09-06T18:31:35.699Z,1.67
2022-09-06T18:34:02.799Z,1.90
2022-09-06T18:36:32.357Z,1.80
2022-09-06T18:39:04.895Z,1.83
2022-09-06T18:41:51.673Z,2.42
2022-09-06T18:44:19.252Z,2.58
2022-09-06T18:46:46.183Z,2.40
2022-09-06T18:49:17.339Z,2.25
2022-09-06T18:51:45.678Z,2.40
2022-09-06T18:54:13.563Z,2.00
2022-09-06T18:56:41.064Z,3.15
2022-09-06T18:59:07.994Z,2.47
2022-09-06T19:01:35.140Z,2.90
2022-09-06T19:04:03.314Z,2.80
2022-09-06T19:06:33.171Z,2.40
2022-09-06T19:09:02.238Z,2.35
2022-09-06T19:11:29.575Z,2.42
2022-09-06T19:13:57.934Z,2.30
2022-09-06T19:16:26.665Z,2.85
2022-09-06T19:18:56.941Z,2.42
2022-09-06T19:21:25.521Z,2.90
2022-09-06T19:24:01.718Z,2.72
2022-09-06T19:26:32.254Z,3.00
2022-09-06T19:29:02.070Z,2.65
2022-09-06T19:31:31.342Z,3.15
2022-09-06T19:33:58.662Z,3.13
2022-09-06T19:36:27.559Z,2.85
2022-09-06T19:39:03.705Z,2.95
2022-09-06T19:44:00.018Z,2.95
2022-09-06T19:46:27.626Z,2.80
2022-09-06T19:48:58.257Z,2.58
2022-09-06T19:51:25.272Z,2.67
2022-09-06T19:53:54.157Z,2.58
2022-09-06T19:56:23.404Z,2.55
2022-09-06T19:58:58.358Z,2.40
2022-09-06T20:01:29.601Z,2.17
2022-09-06T20:03:58.240Z,2.30
2022-09-06T20:06:25.708Z,2.67
2022-09-06T20:08:54.748Z,2.65
2022-09-06T20:11:23.504Z,3.13
2022-09-06T20:13:50.580Z,2.55
2022-09-06T20:16:20.629Z,2.28
2022-09-06T20:18:48.416Z,2.58
2022-09-06T20:21:17.607Z,2.25
2022-09-06T20:23:52.377Z,2.35
2022-09-06T20:26:22.753Z,2.55
2022-09-06T20:29:00.900Z,2.38
2022-09-06T20:31:29.204Z,2.17
2022-09-06T20:33:56.518Z,2.60
2022-09-06T20:38:50.866Z,2.10
2022-09-06T20:41:20.292Z,1.95
2022-09-06T20:43:55.315Z,2.20
2022-09-06T20:46:24.831Z,2.05
2022-09-06T20:48:52.307Z,2.25
2022-09-06T20:51:21.526Z,2.58
2022-09-06T20:53:53.402Z,2.13
2022-09-06T20:56:22.860Z,2.92
2022-09-06T20:58:52.293Z,2.08
2022-09-06T21:01:23.190Z,2.17
2022-09-06T21:03:56.191Z,1.90
2022-09-06T21:06:24.645Z,1.73
2022-09-06T21:08:52.643Z,2.30
2022-09-06T21:11:19.930Z,2.58
2022-09-06T21:13:51.897Z,1.83
2022-09-06T21:16:24.279Z,2.00
2022-09-06T21:19:03.527Z,1.83
2022-09-06T21:21:31.899Z,2.50
2022-09-06T21:24:01.349Z,2.28
2022-09-06T21:26:28.751Z,2.20
2022-09-06T21:31:25.014Z,2.47
2022-09-06T21:33:54.015Z,2.70
2022-09-06T21:36:35.857Z,2.63
2022-09-06T21:39:05.789Z,4.00
2022-09-06T21:41:34.910Z,4.03
2022-09-06T21:44:05.820Z,3.67
2022-09-06T21:46:35.498Z,2.72
2022-09-06T21:49:07.094Z,2.60
2022-09-06T21:51:34.525Z,2.42
2022-09-06T21:54:04.794Z,2.60
2022-09-06T21:56:36.648Z,2.50
2022-09-06T21:59:04.483Z,2.65
2022-09-06T22:01:33.931Z,2.83
2022-09-06T22:04:00.988Z,2.15
2022-09-06T22:06:29.919Z,2.55
2022-09-06T22:08:58.817Z,2.30
2022-09-06T22:11:29.356Z,2.08
2022-09-06T22:14:05.423Z,2.20
2022-09-06T22:16:35.754Z,1.77
2022-09-06T22:19:04.940Z,2.03
2022-09-06T22:21:33.068Z,1.70
2022-09-06T22:24:02.846Z,2.00
2022-09-06T22:26:31.683Z,1.63
2022-09-06T22:29:01.363Z,2.00
2022-09-06T22:31:30.262Z,1.60
2022-09-06T22:33:57.684Z,1.90
2022-09-06T22:38:57.036Z,1.85
2022-09-06T22:41:25.718Z,2.00
2022-09-06T22:43:52.477Z,1.75
2022-09-06T22:46:20.183Z,1.55
2022-09-06T22:48:47.175Z,2.13
2022-09-06T22:51:13.994Z,2.50
2022-09-06T22:53:40.803Z,1.70
2022-09-06T22:56:07.763Z,1.70
2022-09-06T22:58:37.936Z,2.20
2022-09-06T23:01:07.340Z,1.80
2022-09-06T23:03:35.251Z,2.25
2022-09-06T23:06:03.252Z,1.38
2022-09-06T23:08:31.186Z,1.90
2022-09-06T23:10:59.053Z,1.90
2022-09-06T23:13:25.896Z,1.45
2022-09-06T23:15:52.746Z,1.75
2022-09-06T23:18:19.460Z,1.90
2022-09-06T23:20:46.383Z,1.75
2022-09-06T23:23:13.616Z,1.48
2022-09-06T23:28:07.363Z,2.40
2022-09-06T23:30:37.645Z,1.60
2022-09-06T23:33:05.186Z,1.52
2022-09-06T23:35:32.209Z,2.05
2022-09-06T23:37:59.236Z,1.60
2022-09-06T23:40:26.296Z,1.60
2022-09-06T23:42:53.019Z,2.15
2022-09-06T23:45:19.782Z,1.77
2022-09-06T23:47:46.785Z,1.30
2022-09-06T23:50:13.534Z,1.80
2022-09-06T23:52:40.211Z,1.65
2022-09-06T23:55:09.207Z,2.58
2022-09-06T23:57:36.156Z,1.40
